Time;durP1;ratioP1;P1;durP2;ratioP2;P2;SDS_P1;SDS_P2;PMS_P1;PMS_P2;Temp;Humidity;BMP_temperature;BMP_pressure;BME280_temperature;BME280_humidity;BME280_pressure;Samples;Min_cycle;Max_cycle;Signal;HPM_P1;HPM_P2
2021/07/20 00:01:09;;;;;;;20.67;13.80;;;12.60;99.90;;;;;;5064347;28;20041;-71
2021/07/20 00:03:35;;;;;;;17.27;10.48;;;12.70;99.90;;;;;;5064998;28;20052;-71
2021/07/20 00:06:01;;;;;;;16.95;9.68;;;12.50;99.90;;;;;;5064008;28;20036;-71
2021/07/20 00:08:27;;;;;;;12.30;8.88;;;12.50;99.90;;;;;;5062503;28;20125;-71
2021/07/20 00:10:56;;;;;;;13.23;9.15;;;12.40;99.90;;;;;;5063014;28;20895;-71
2021/07/20 00:13:21;;;;;;;14.02;10.00;;;12.30;99.90;;;;;;5065157;28;20151;-71
2021/07/20 00:15:51;;;;;;;14.95;9.88;;;12.20;99.90;;;;;;5063582;28;20132;-71
2021/07/20 00:18:21;;;;;;;19.88;11.50;;;12.20;99.90;;;;;;5064269;28;20028;-71
2021/07/20 00:20:47;;;;;;;22.40;12.73;;;12.20;99.90;;;;;;5062038;28;20047;-71
2021/07/20 00:23:12;;;;;;;20.27;12.60;;;12.20;99.90;;;;;;5062400;28;20036;-71
2021/07/20 00:25:39;;;;;;;20.35;12.75;;;12.20;99.90;;;;;;5064336;28;20809;-71
2021/07/20 00:28:05;;;;;;;17.08;10.70;;;12.50;99.90;;;;;;5063440;28;20367;-71
2021/07/20 00:30:31;;;;;;;17.27;10.57;;;12.20;99.90;;;;;;5060669;28;20056;-71
2021/07/20 00:32:57;;;;;;;15.50;9.90;;;12.20;99.90;;;;;;5064307;28;20045;-71
2021/07/20 00:35:23;;;;;;;17.20;10.60;;;12.20;99.90;;;;;;5064509;28;20032;-71
2021/07/20 00:37:49;;;;;;;25.60;12.32;;;12.20;99.90;;;;;;5063189;28;20048;-71
2021/07/20 00:40:20;;;;;;;14.85;10.38;;;12.20;99.90;;;;;;5061415;28;20048;-71
2021/07/20 00:42:46;;;;;;;18.10;10.75;;;12.20;99.90;;;;;;5063972;28;20093;-71
2021/07/20 00:45:15;;;;;;;19.77;11.68;;;12.10;99.90;;;;;;5063847;28;20043;-71
2021/07/20 00:47:40;;;;;;;19.15;11.75;;;12.10;99.90;;;;;;5062538;28;20041;-71
2021/07/20 00:50:09;;;;;;;20.42;12.85;;;12.10;99.90;;;;;;5061858;28;20722;-71
2021/07/20 00:52:35;;;;;;;20.42;12.27;;;12.10;99.90;;;;;;5063605;28;20284;-71
2021/07/20 00:55:03;;;;;;;17.92;12.20;;;12.20;99.90;;;;;;5062061;28;20043;-71
2021/07/20 00:57:33;;;;;;;18.77;12.30;;;12.20;99.90;;;;;;5061454;28;20040;-71
2021/07/20 00:59:59;;;;;;;23.85;13.55;;;12.20;99.90;;;;;;5059567;28;20053;-71
2021/07/20 01:02:25;;;;;;;20.38;12.73;;;12.30;99.90;;;;;;5063785;28;20055;-71
2021/07/20 01:04:51;;;;;;;21.88;14.05;;;12.30;99.90;;;;;;5064166;28;20040;-71
2021/07/20 01:07:18;;;;;;;21.73;13.98;;;12.40;99.90;;;;;;5063494;28;20055;-71
2021/07/20 01:09:45;;;;;;;20.27;13.23;;;12.50;99.90;;;;;;5059564;28;21181;-71
2021/07/20 01:12:12;;;;;;;23.88;14.18;;;12.50;99.90;;;;;;5061885;28;20113;-71
2021/07/20 01:14:37;;;;;;;23.92;15.15;;;12.60;99.90;;;;;;5061240;28;20489;-71
2021/07/20 01:17:05;;;;;;;25.92;14.90;;;12.70;99.90;;;;;;5062253;28;20036;-71
2021/07/20 01:19:35;;;;;;;24.50;13.95;;;12.70;99.90;;;;;;5060510;28;20075;-71
2021/07/20 01:22:03;;;;;;;24.30;13.00;;;12.70;99.90;;;;;;5063025;28;20036;-71
2021/07/20 01:24:28;;;;;;;21.15;13.70;;;12.70;99.90;;;;;;5063515;28;20052;-71
2021/07/20 01:26:55;;;;;;;23.25;14.30;;;12.70;99.90;;;;;;5061230;28;20098;-71
2021/07/20 01:29:22;;;;;;;23.08;13.55;;;12.80;99.90;;;;;;5058507;28;20066;-71
2021/07/20 01:31:49;;;;;;;22.17;13.50;;;12.80;99.90;;;;;;5063778;28;20036;-71
2021/07/20 01:34:16;;;;;;;21.92;13.02;;;12.80;99.90;;;;;;5063080;28;20506;-71
2021/07/20 01:36:45;;;;;;;19.20;12.32;;;12.80;99.90;;;;;;5061288;28;20044;-71
2021/07/20 01:39:12;;;;;;;19.75;13.23;;;12.90;99.90;;;;;;5057609;28;20036;-71
2021/07/20 01:41:40;;;;;;;19.33;12.63;;;12.90;99.90;;;;;;5062407;28;20106;-71
2021/07/20 01:44:09;;;;;;;20.13;13.45;;;12.90;99.90;;;;;;5060983;28;20505;-71
2021/07/20 01:46:37;;;;;;;21.90;12.60;;;12.90;99.90;;;;;;5062368;28;20044;-71
2021/07/20 01:49:05;;;;;;;20.30;12.20;;;13.00;99.90;;;;;;5058100;28;20115;-71
2021/07/20 01:51:34;;;;;;;17.15;11.48;;;13.00;99.90;;;;;;5062200;28;20043;-71
2021/07/20 01:54:00;;;;;;;18.65;13.10;;;13.10;99.90;;;;;;5062414;28;20127;-71
2021/07/20 01:56:26;;;;;;;18.30;11.95;;;13.10;99.90;;;;;;5061088;28;20044;-71
2021/07/20 01:58:53;;;;;;;22.85;13.60;;;13.10;99.90;;;;;;5058924;28;20037;-71
2021/07/20 02:01:27;;;;;;;17.75;12.32;;;13.10;99.90;;;;;;5062509;28;20449;-71
2021/07/20 02:04:12;;;;;;;17.90;12.05;;;13.20;99.90;;;;;;5062312;28;20042;-71
2021/07/20 02:09:30;;;;;;;18.77;12.57;;;13.30;99.90;;;;;;5058494;28;20494;-71
2021/07/20 02:11:58;;;;;;;19.13;11.93;;;13.30;99.90;;;;;;5059945;28;20090;-71
2021/07/20 02:14:29;;;;;;;17.02;11.20;;;13.30;99.90;;;;;;5061186;28;20116;-71
2021/07/20 02:16:58;;;;;;;18.98;11.43;;;13.40;99.90;;;;;;5061056;28;20239;-71
2021/07/20 02:19:31;;;;;;;17.98;11.43;;;13.50;99.90;;;;;;5059085;28;20052;-71
2021/07/20 02:22:02;;;;;;;15.52;12.02;;;13.50;99.90;;;;;;5060735;28;20131;-71
2021/07/20 02:24:31;;;;;;;15.52;11.15;;;13.50;99.90;;;;;;5061242;28;20506;-71
2021/07/20 02:27:04;;;;;;;15.05;10.45;;;13.50;99.90;;;;;;5059969;28;20048;-71
2021/07/20 02:29:30;;;;;;;20.73;10.95;;;13.60;99.90;;;;;;5058885;28;20461;-71
2021/07/20 02:31:59;;;;;;;19.00;11.40;;;13.60;99.90;;;;;;5065247;28;20444;-71
2021/07/20 02:34:31;;;;;;;15.70;10.88;;;13.60;99.90;;;;;;5063223;28;20128;-71
2021/07/20 02:36:57;;;;;;;18.98;11.52;;;13.60;99.90;;;;;;5061828;28;20067;-71
2021/07/20 02:39:24;;;;;;;14.98;10.48;;;13.60;99.90;;;;;;5060128;28;20036;-71
2021/07/20 02:41:53;;;;;;;16.30;11.10;;;13.70;99.90;;;;;;5063334;28;20043;-71
2021/07/20 02:44:20;;;;;;;19.65;12.15;;;13.70;99.90;;;;;;5064207;28;20098;-71
2021/07/20 02:46:46;;;;;;;16.88;10.85;;;13.70;99.90;;;;;;5064018;28;20040;-71
2021/07/20 02:49:13;;;;;;;16.88;10.85;;;13.60;99.90;;;;;;5062807;28;20047;-71
2021/07/20 02:51:40;;;;;;;18.33;10.88;;;13.60;99.90;;;;;;5064367;28;20133;-71
2021/07/20 02:54:07;;;;;;;16.92;10.30;;;13.60;99.90;;;;;;5064552;28;20036;-71
2021/07/20 02:56:33;;;;;;;15.15;11.05;;;13.60;99.90;;;;;;5064326;28;20048;-71
2021/07/20 02:59:05;;;;;;;14.93;10.73;;;13.60;99.90;;;;;;5063653;28;20573;-72
2021/07/20 03:01:36;;;;;;;15.50;11.15;;;13.60;99.90;;;;;;5065216;28;20405;-71
2021/07/20 03:04:02;;;;;;;13.40;9.93;;;13.70;99.90;;;;;;5065163;28;20037;-71
2021/07/20 03:06:29;;;;;;;17.67;11.10;;;13.70;99.90;;;;;;5061557;28;20051;-71
2021/07/20 03:08:58;;;;;;;14.73;10.73;;;13.70;99.90;;;;;;5060873;28;20067;-71
2021/07/20 03:11:29;;;;;;;18.35;9.98;;;13.70;99.90;;;;;;5064042;28;20037;-71
2021/07/20 03:13:58;;;;;;;18.30;9.57;;;13.70;99.90;;;;;;5065019;28;20029;-71
2021/07/20 03:16:25;;;;;;;15.55;9.90;;;13.80;99.90;;;;;;5061075;28;20044;-71
2021/07/20 03:18:52;;;;;;;18.20;11.02;;;13.70;99.90;;;;;;5062199;28;20058;-71
2021/07/20 03:21:20;;;;;;;14.23;9.65;;;13.70;99.90;;;;;;5061990;28;20068;-71
2021/07/20 03:23:47;;;;;;;15.43;10.00;;;13.70;99.90;;;;;;5066969;28;20040;-71
2021/07/20 03:26:13;;;;;;;13.20;9.93;;;13.70;99.90;;;;;;5066417;28;20066;-71
2021/07/20 03:28:41;;;;;;;15.13;10.00;;;13.80;99.90;;;;;;5063771;28;20125;-71
2021/07/20 03:31:08;;;;;;;15.75;10.80;;;13.80;99.90;;;;;;5068046;28;20047;-71
2021/07/20 03:33:35;;;;;;;19.05;10.82;;;13.90;99.90;;;;;;5069125;28;20041;-71
2021/07/20 03:36:01;;;;;;;15.15;10.13;;;13.90;99.90;;;;;;5066415;28;20044;-71
2021/07/20 03:38:28;;;;;;;15.52;10.35;;;13.90;99.90;;;;;;5066287;28;20043;-71
2021/07/20 03:40:54;;;;;;;15.82;10.95;;;13.90;99.90;;;;;;5063842;28;20508;-71
2021/07/20 03:43:24;;;;;;;16.83;10.40;;;14.00;99.90;;;;;;5067435;28;20049;-71
2021/07/20 03:46:27;;;;;;;19.05;11.25;;;14.00;99.90;;;;;;5067992;28;20029;-70
2021/07/20 03:48:55;;;;;;;15.65;10.52;;;14.10;99.90;;;;;;5063269;28;20057;-71
2021/07/20 03:51:22;;;;;;;15.88;10.13;;;14.10;99.90;;;;;;5068194;28;20098;-71
2021/07/20 03:53:49;;;;;;;13.98;10.55;;;14.10;99.90;;;;;;5067326;28;20056;-71
2021/07/20 03:56:15;;;;;;;15.70;10.30;;;14.10;99.90;;;;;;5065927;28;20044;-71
2021/07/20 03:58:43;;;;;;;15.73;10.70;;;14.10;99.90;;;;;;5063019;28;20048;-71
2021/07/20 04:01:11;;;;;;;14.32;10.40;;;14.60;99.90;;;;;;5068221;28;20640;-71
2021/07/20 04:03:39;;;;;;;16.10;10.35;;;14.10;99.90;;;;;;5066768;28;20040;-71
2021/07/20 04:06:07;;;;;;;14.10;10.27;;;14.10;99.90;;;;;;5066272;28;20115;-71
2021/07/20 04:08:35;;;;;;;14.38;9.20;;;14.10;99.90;;;;;;5062271;28;20045;-71
2021/07/20 04:11:01;;;;;;;12.98;10.20;;;14.20;99.90;;;;;;5064295;28;20131;-71
2021/07/20 04:13:27;;;;;;;15.20;10.68;;;14.20;99.90;;;;;;5064000;28;20040;-71
2021/07/20 04:16:05;;;;;;;17.77;10.43;;;14.20;99.90;;;;;;5063422;28;20044;-71
2021/07/20 04:18:34;;;;;;;14.38;10.27;;;14.20;99.90;;;;;;5064552;28;20047;-71
2021/07/20 04:21:02;;;;;;;15.40;9.75;;;14.20;99.90;;;;;;5064869;28;20059;-71
2021/07/20 04:23:29;;;;;;;15.45;10.43;;;14.20;99.90;;;;;;5067641;28;20033;-71
2021/07/20 04:25:56;;;;;;;17.73;10.07;;;14.30;99.90;;;;;;5064141;28;20040;-71
2021/07/20 04:28:24;;;;;;;16.90;10.43;;;14.30;99.90;;;;;;5064128;28;20044;-71
2021/07/20 04:30:50;;;;;;;15.48;10.45;;;14.30;99.90;;;;;;5064957;28;20044;-71
2021/07/20 04:33:25;;;;;;;19.23;10.60;;;14.40;99.90;;;;;;5066641;28;20041;-71
2021/07/20 04:35:52;;;;;;;14.05;9.90;;;14.40;99.90;;;;;;5064011;28;20052;-71
2021/07/20 04:38:20;;;;;;;14.77;9.77;;;14.50;99.90;;;;;;5065117;28;20032;-71
2021/07/20 04:40:46;;;;;;;15.52;9.60;;;14.50;99.90;;;;;;5064523;28;20040;-71
2021/07/20 04:43:12;;;;;;;13.60;9.52;;;14.50;99.90;;;;;;5067052;28;20382;-71
2021/07/20 04:45:44;;;;;;;13.25;9.77;;;14.60;99.90;;;;;;5065679;28;20044;-71
2021/07/20 04:48:14;;;;;;;15.35;10.07;;;14.60;99.90;;;;;;5061428;28;20039;-71
2021/07/20 04:50:42;;;;;;;13.38;9.60;;;14.70;99.90;;;;;;5062081;28;20044;-71
2021/07/20 04:53:12;;;;;;;15.20;9.75;;;14.70;99.90;;;;;;5066807;28;20064;-71
2021/07/20 04:55:43;;;;;;;14.48;10.60;;;14.70;99.90;;;;;;5065805;28;20040;-71
2021/07/20 04:58:09;;;;;;;17.60;10.43;;;14.80;99.90;;;;;;5065203;28;20804;-71
2021/07/20 05:00:36;;;;;;;16.40;11.00;;;14.80;99.90;;;;;;5062085;28;20024;-71
2021/07/20 05:03:03;;;;;;;16.13;9.75;;;14.90;99.90;;;;;;5065695;28;20041;-71
2021/07/20 05:05:31;;;;;;;18.35;9.93;;;14.90;99.90;;;;;;5065916;28;20490;-71
2021/07/20 05:07:59;;;;;;;16.77;10.57;;;14.90;99.90;;;;;;5064420;28;20064;-71
2021/07/20 05:10:25;;;;;;;18.00;10.70;;;15.00;99.90;;;;;;5063699;28;20097;-71
2021/07/20 05:12:51;;;;;;;18.33;10.65;;;15.00;99.90;;;;;;5066914;28;20040;-71
2021/07/20 05:15:19;;;;;;;14.52;10.85;;;15.10;99.90;;;;;;5062696;28;20086;-71
2021/07/20 05:17:47;;;;;;;14.02;9.95;;;15.10;99.90;;;;;;5063418;28;20049;-71
2021/07/20 05:20:15;;;;;;;15.20;10.57;;;15.20;99.90;;;;;;5062592;28;20041;-71
2021/07/20 05:22:42;;;;;;;16.98;10.15;;;15.20;99.90;;;;;;5064502;28;20051;-71
2021/07/20 05:25:09;;;;;;;16.77;11.55;;;15.30;99.90;;;;;;5065547;28;20401;-72
2021/07/20 05:27:38;;;;;;;17.70;11.25;;;15.40;99.90;;;;;;5061816;28;20052;-71
2021/07/20 05:30:06;;;;;;;16.25;10.88;;;15.40;99.90;;;;;;5057140;28;20066;-71
2021/07/20 05:32:34;;;;;;;18.50;11.35;;;15.40;99.90;;;;;;5055077;28;20079;-72
2021/07/20 05:35:01;;;;;;;17.17;10.73;;;15.50;99.90;;;;;;5059337;28;20040;-71
2021/07/20 05:37:28;;;;;;;18.10;10.90;;;15.50;99.90;;;;;;5061099;28;20393;-71
2021/07/20 05:39:54;;;;;;;13.23;10.40;;;15.60;99.90;;;;;;5054703;28;20039;-71
2021/07/20 05:42:22;;;;;;;14.57;11.25;;;15.70;99.90;;;;;;5056701;28;20078;-71
2021/07/20 05:44:49;;;;;;;16.33;10.43;;;15.70;99.90;;;;;;5060693;28;20550;-71
2021/07/20 05:47:15;;;;;;;18.65;9.95;;;15.80;99.90;;;;;;5058708;28;20115;-71
2021/07/20 05:49:42;;;;;;;16.67;10.07;;;15.80;99.90;;;;;;5055428;28;20094;-71
2021/07/20 05:52:08;;;;;;;15.93;10.25;;;15.80;99.90;;;;;;5059826;28;20036;-71
2021/07/20 05:54:35;;;;;;;14.80;11.25;;;15.90;99.90;;;;;;5063571;28;20052;-71
2021/07/20 05:57:02;;;;;;;16.30;10.25;;;15.90;99.90;;;;;;5063852;28;20102;-71
2021/07/20 05:59:29;;;;;;;13.07;9.80;;;16.00;99.90;;;;;;5061493;28;20634;-71
2021/07/20 06:01:56;;;;;;;13.35;10.65;;;16.00;99.90;;;;;;5059440;28;20498;-71
2021/07/20 06:04:23;;;;;;;16.88;9.45;;;16.10;99.90;;;;;;5059435;28;20032;-71
2021/07/20 06:06:51;;;;;;;14.23;8.90;;;16.10;99.90;;;;;;5061813;28;20044;-72
2021/07/20 06:09:18;;;;;;;16.33;10.25;;;16.10;99.90;;;;;;5059302;28;20039;-71
2021/07/20 06:11:46;;;;;;;12.77;9.27;;;16.20;99.90;;;;;;5058549;28;20060;-71
2021/07/20 06:14:12;;;;;;;13.18;9.88;;;16.20;99.90;;;;;;5062179;28;20043;-71
2021/07/20 06:16:40;;;;;;;17.73;9.93;;;16.20;99.90;;;;;;5059265;28;20052;-71
2021/07/20 06:19:06;;;;;;;12.88;9.73;;;16.30;99.90;;;;;;5048559;28;20047;-71
2021/07/20 06:21:35;;;;;;;12.18;9.13;;;16.30;99.90;;;;;;5055499;28;20041;-71
2021/07/20 06:24:02;;;;;;;13.40;8.93;;;16.50;99.90;;;;;;5062897;28;20036;-71
2021/07/20 06:26:29;;;;;;;13.43;9.77;;;16.50;99.90;;;;;;5060820;28;20135;-71
2021/07/20 06:28:59;;;;;;;12.70;8.95;;;16.60;99.90;;;;;;5051909;28;20759;-71
2021/07/20 06:31:26;;;;;;;10.73;9.00;;;16.60;99.90;;;;;;5049838;28;20036;-71
2021/07/20 06:33:54;;;;;;;17.42;9.80;;;16.70;99.90;;;;;;5052609;28;20044;-71
2021/07/20 06:36:21;;;;;;;15.27;10.57;;;16.70;99.90;;;;;;5051157;28;20072;-71
2021/07/20 06:38:47;;;;;;;15.05;9.98;;;16.80;99.90;;;;;;5046236;28;21616;-71
2021/07/20 06:41:13;;;;;;;11.77;9.27;;;16.90;99.90;;;;;;5050339;28;20072;-71
2021/07/20 06:43:41;;;;;;;11.75;9.57;;;17.00;99.90;;;;;;5050650;28;20739;-71
2021/07/20 06:46:08;;;;;;;11.68;9.20;;;17.10;99.90;;;;;;5049856;28;20051;-71
2021/07/20 06:48:38;;;;;;;13.73;9.05;;;17.20;99.90;;;;;;5045977;28;20390;-71
2021/07/20 06:51:04;;;;;;;12.05;8.93;;;17.20;99.90;;;;;;5047980;28;20036;-71
2021/07/20 06:53:32;;;;;;;12.10;9.32;;;17.30;99.90;;;;;;5051725;28;20048;-71
2021/07/20 06:56:01;;;;;;;12.07;9.20;;;17.30;99.90;;;;;;5041732;28;20048;-72
2021/07/20 06:58:28;;;;;;;11.23;9.20;;;17.50;99.90;;;;;;5040556;28;20753;-71
2021/07/20 07:00:57;;;;;;;12.40;8.98;;;17.50;99.90;;;;;;5035878;28;20052;-71
2021/07/20 07:03:40;;;;;;;12.30;9.02;;;17.70;99.90;;;;;;5029796;28;20033;-71
2021/07/20 07:06:09;;;;;;;12.90;8.95;;;17.80;99.90;;;;;;5036335;28;20131;-71
2021/07/20 07:08:37;;;;;;;10.40;8.73;;;17.90;99.90;;;;;;5036211;28;20048;-71
2021/07/20 07:11:03;;;;;;;17.70;8.65;;;18.10;99.90;;;;;;5037814;28;20202;-71
2021/07/20 07:13:29;;;;;;;11.70;9.07;;;18.30;99.90;;;;;;5037232;28;20037;-71
2021/07/20 07:15:56;;;;;;;12.82;9.18;;;18.40;99.90;;;;;;5041330;28;20060;-71
2021/07/20 07:18:26;;;;;;;14.57;9.13;;;18.60;99.90;;;;;;5035843;28;20055;-72
2021/07/20 07:20:54;;;;;;;13.93;9.73;;;18.80;99.90;;;;;;5036009;28;20041;-69
2021/07/20 07:23:20;;;;;;;12.77;9.60;;;19.10;99.90;;;;;;5038497;28;20069;-79
2021/07/20 07:25:51;;;;;;;13.52;9.82;;;19.40;99.90;;;;;;5040174;28;20040;-71
2021/07/20 07:28:19;;;;;;;12.57;9.50;;;19.70;99.90;;;;;;5035530;28;20040;-67
2021/07/20 07:30:48;;;;;;;12.55;9.27;;;20.20;99.90;;;;;;5033030;28;20090;-67
2021/07/20 07:33:14;;;;;;;10.13;8.18;;;20.30;99.90;;;;;;5034641;28;20041;-68
2021/07/20 07:35:40;;;;;;;13.25;7.95;;;20.40;99.70;;;;;;5035778;28;20072;-67
2021/07/20 07:38:07;;;;;;;10.52;8.23;;;20.60;99.90;;;;;;5035723;28;20044;-69
2021/07/20 07:40:34;;;;;;;11.05;8.70;;;20.60;99.30;;;;;;5032405;28;20044;-69
2021/07/20 07:43:03;;;;;;;10.93;7.53;;;20.60;99.60;;;;;;5037250;28;20482;-67
2021/07/20 07:45:29;;;;;;;10.25;8.27;;;20.60;98.10;;;;;;5032745;28;20036;-67
2021/07/20 07:47:56;;;;;;;12.23;9.15;;;20.50;97.20;;;;;;5032763;28;20807;-67
2021/07/20 07:50:22;;;;;;;11.75;9.35;;;20.40;97.80;;;;;;5035172;28;20093;-67
2021/07/20 07:52:50;;;;;;;12.52;7.85;;;20.40;99.00;;;;;;5042779;28;20044;-68
2021/07/20 07:55:20;;;;;;;11.63;8.13;;;20.40;99.00;;;;;;5042800;28;20094;-66
2021/07/20 07:57:46;;;;;;;9.57;8.10;;;20.40;99.10;;;;;;5032322;28;21609;-70
2021/07/20 08:00:12;;;;;;;12.07;8.68;;;20.40;98.60;;;;;;5030859;28;20052;-70
2021/07/20 08:02:41;;;;;;;10.50;8.52;;;20.30;98.40;;;;;;5036801;28;20059;-70
2021/07/20 08:05:08;;;;;;;10.45;8.07;;;20.40;97.40;;;;;;5035439;28;20036;-70
2021/07/20 08:07:36;;;;;;;10.35;7.63;;;20.60;96.10;;;;;;5036700;28;20159;-70
2021/07/20 08:10:06;;;;;;;10.25;7.80;;;21.10;96.40;;;;;;5035373;28;20048;-70
2021/07/20 08:12:32;;;;;;;10.07;8.02;;;21.40;95.20;;;;;;5037265;28;20629;-70
2021/07/20 08:14:59;;;;;;;8.23;7.32;;;21.70;94.80;;;;;;5043660;28;20044;-70
2021/07/20 08:17:25;;;;;;;13.00;8.25;;;22.00;93.60;;;;;;5038473;28;20041;-70
2021/07/20 08:19:52;;;;;;;7.55;6.75;;;22.10;92.50;;;;;;5037190;28;20167;-70
2021/07/20 08:22:19;;;;;;;7.97;6.90;;;22.20;91.60;;;;;;5039717;28;20048;-70
2021/07/20 08:25:09;;;;;;;7.82;6.68;;;22.30;92.30;;;;;;5037246;28;20054;-70
2021/07/20 08:27:48;;;;;;;7.85;7.05;;;22.50;90.70;;;;;;5035408;28;20047;-70
2021/07/20 08:30:16;;;;;;;9.23;6.65;;;22.20;86.30;;;;;;5036096;28;20045;-70
2021/07/20 08:32:48;;;;;;;7.80;6.60;;;22.10;91.40;;;;;;5035004;28;20041;-70
2021/07/20 08:35:19;;;;;;;7.40;6.70;;;22.00;91.10;;;;;;5037482;28;20040;-70
2021/07/20 08:37:47;;;;;;;7.47;6.53;;;21.90;91.00;;;;;;5037484;28;21721;-70
2021/07/20 08:40:44;;;;;;;7.20;6.38;;;21.80;92.90;;;;;;5038033;28;20048;-70
2021/07/20 08:43:32;;;;;;;7.63;6.57;;;21.60;92.80;;;;;;5036148;28;20064;-70
2021/07/20 08:46:13;;;;;;;9.65;6.47;;;21.10;90.60;;;;;;5038010;28;21426;-70
2021/07/20 08:49:07;;;;;;;12.95;7.05;;;20.80;90.90;;;;;;5034736;28;20055;-71
2021/07/20 08:52:11;;;;;;;11.50;7.47;;;20.50;93.80;;;;;;5038347;28;20040;-70
2021/07/20 08:54:58;;;;;;;9.60;8.70;;;20.50;92.20;;;;;;5004402;28;20059;-70
2021/07/20 08:57:50;;;;;;;10.18;7.03;;;20.80;94.10;;;;;;5036307;28;20052;-70
2021/07/20 09:00:23;;;;;;;9.68;6.85;;;21.30;92.20;;;;;;5033748;28;20053;-70
2021/07/20 09:03:32;;;;;;;6.95;6.28;;;21.70;92.60;;;;;;5033266;28;20052;-70
2021/07/20 09:06:18;;;;;;;13.20;11.02;;;21.80;91.70;;;;;;5018233;28;20058;-70
2021/07/20 09:09:21;;;;;;;9.05;6.80;;;21.80;91.00;;;;;;5029324;28;20095;-70
2021/07/20 09:11:50;;;;;;;8.52;7.30;;;21.50;85.90;;;;;;5024395;28;20142;-70
2021/07/20 09:14:29;;;;;;;6.97;6.28;;;21.50;90.00;;;;;;5034270;28;20040;-70
2021/07/20 09:17:08;;;;;;;8.05;6.60;;;21.40;88.00;;;;;;5033219;28;20044;-70
2021/07/20 09:19:42;;;;;;;7.35;6.13;;;21.30;90.00;;;;;;5036776;28;20032;-71
2021/07/20 09:22:15;;;;;;;7.75;6.43;;;21.30;90.10;;;;;;5040280;28;20036;-71
2021/07/20 09:24:49;;;;;;;8.27;7.07;;;21.20;89.70;;;;;;5038590;28;20036;-71
2021/07/20 09:27:47;;;;;;;7.28;6.57;;;20.90;88.70;;;;;;5037111;28;20040;-71
2021/07/20 09:30:18;;;;;;;13.43;6.78;;;20.80;92.10;;;;;;5050676;28;21019;-71
2021/07/20 09:33:01;;;;;;;9.18;6.63;;;20.80;94.20;;;;;;5039627;28;20497;-71
2021/07/20 09:35:34;;;;;;;6.30;5.70;;;20.90;94.40;;;;;;5043287;28;20537;-71
2021/07/20 09:38:11;;;;;;;11.80;6.05;;;21.00;94.10;;;;;;5036454;28;20130;-71
2021/07/20 09:40:58;;;;;;;7.65;6.38;;;21.00;93.00;;;;;;5032378;28;20055;-71
2021/07/20 09:43:43;;;;;;;5.93;5.32;;;21.00;93.60;;;;;;5034856;28;20099;-70
2021/07/20 09:46:17;;;;;;;7.55;6.55;;;21.00;90.80;;;;;;5033457;28;20040;-71
2021/07/20 09:48:50;;;;;;;20.48;7.88;;;21.00;92.10;;;;;;5035328;28;21356;-71
2021/07/20 09:52:06;;;;;;;6.40;5.80;;;21.00;95.00;;;;;;5035061;28;20687;-71
2021/07/20 09:54:54;;;;;;;7.82;6.03;;;21.10;94.50;;;;;;5037219;28;20686;-71
2021/07/20 09:57:39;;;;;;;7.10;5.80;;;20.90;93.10;;;;;;5036057;28;20095;-71
2021/07/20 10:00:12;;;;;;;7.22;6.10;;;21.00;95.10;;;;;;5037352;28;20080;-71
2021/07/20 10:02:44;;;;;;;14.90;12.30;;;21.00;94.40;;;;;;5035293;28;20563;-71
2021/07/20 10:05:25;;;;;;;24.83;18.60;;;21.20;95.10;;;;;;5038534;28;20045;-71
2021/07/20 10:07:59;;;;;;;6.38;5.78;;;21.60;94.60;;;;;;5036217;28;20104;-71
2021/07/20 10:10:41;;;;;;;6.93;5.90;;;22.10;94.80;;;;;;5034756;28;20159;-71
2021/07/20 10:13:31;;;;;;;7.40;5.88;;;22.50;90.50;;;;;;5038435;28;20060;-71
2021/07/20 10:16:17;;;;;;;5.70;5.15;;;22.50;89.70;;;;;;5035391;28;20044;-71
2021/07/20 10:19:06;;;;;;;6.25;5.65;;;22.30;83.70;;;;;;5026448;28;20108;-71
2021/07/20 10:21:35;;;;;;;6.38;5.57;;;22.10;87.10;;;;;;5033056;28;20051;-71
2021/07/20 10:24:11;;;;;;;7.55;5.40;;;22.00;85.40;;;;;;5031557;28;20082;-70
2021/07/20 10:26:49;;;;;;;7.15;6.18;;;22.00;87.80;;;;;;5029901;28;20064;-71
2021/07/20 10:29:40;;;;;;;6.13;5.47;;;22.00;90.70;;;;;;5031571;28;20048;-71
2021/07/20 10:32:32;;;;;;;6.28;5.65;;;22.20;91.70;;;;;;5041795;28;20044;-71
2021/07/20 10:35:03;;;;;;;7.93;6.53;;;22.40;90.30;;;;;;5032285;28;20044;-71
2021/07/20 10:37:36;;;;;;;6.07;5.57;;;22.40;87.10;;;;;;5034500;28;20079;-71
2021/07/20 10:40:09;;;;;;;6.28;5.60;;;22.40;87.70;;;;;;5043935;28;20428;-71
2021/07/20 10:42:53;;;;;;;6.03;5.43;;;22.60;85.70;;;;;;5047755;28;20156;-71
2021/07/20 10:45:21;;;;;;;7.10;5.13;;;22.80;86.60;;;;;;5047740;28;20045;-71
2021/07/20 10:48:04;;;;;;;7.00;5.38;;;23.20;86.00;;;;;;5047983;28;20040;-71
2021/07/20 10:50:38;;;;;;;7.03;5.90;;;23.50;74.90;;;;;;5037237;28;20157;-71
2021/07/20 10:53:17;;;;;;;6.20;5.60;;;23.40;76.40;;;;;;5040242;28;20048;-71
2021/07/20 10:55:56;;;;;;;9.93;6.50;;;23.40;75.10;;;;;;5040656;28;20060;-71
2021/07/20 10:58:28;;;;;;;5.93;4.82;;;23.40;77.20;;;;;;5046954;28;20044;-71
2021/07/20 11:01:10;;;;;;;7.13;5.22;;;23.10;75.20;;;;;;5045261;28;20041;-71
2021/07/20 11:04:00;;;;;;;10.20;6.10;;;22.90;76.70;;;;;;5045548;28;20185;-71
2021/07/20 11:06:27;;;;;;;6.68;5.97;;;22.70;78.20;;;;;;5034547;28;20102;-71
2021/07/20 11:08:59;;;;;;;6.13;5.00;;;22.80;78.50;;;;;;5030840;28;20090;-71
2021/07/20 11:11:36;;;;;;;9.57;5.40;;;22.90;77.40;;;;;;5034174;28;20930;-71
2021/07/20 11:14:05;;;;;;;6.32;5.32;;;22.90;76.10;;;;;;5042356;28;20072;-71
2021/07/20 11:16:33;;;;;;;9.05;6.00;;;23.00;75.80;;;;;;5049578;28;20037;-71
2021/07/20 11:19:01;;;;;;;6.47;5.65;;;22.90;76.00;;;;;;5043994;28;20406;-71
2021/07/20 11:21:28;;;;;;;6.18;5.57;;;22.90;75.30;;;;;;5047590;28;20086;-71
2021/07/20 11:23:54;;;;;;;9.20;6.10;;;22.90;78.60;;;;;;5048961;28;20068;-71
2021/07/20 11:26:21;;;;;;;6.32;5.72;;;23.10;77.90;;;;;;5050234;28;20047;-71
2021/07/20 11:28:48;;;;;;;6.07;5.35;;;23.30;79.40;;;;;;5044847;28;20102;-71
2021/07/20 11:31:24;;;;;;;6.05;5.18;;;23.40;78.30;;;;;;5047750;28;20044;-71
2021/07/20 11:33:57;;;;;;;6.45;5.75;;;23.40;79.90;;;;;;5049399;28;20090;-71
2021/07/20 11:36:25;;;;;;;8.32;6.22;;;23.50;83.90;;;;;;5046232;28;20118;-71
2021/07/20 11:38:55;;;;;;;6.10;5.60;;;23.60;85.50;;;;;;5045360;28;20047;-71
2021/07/20 11:41:46;;;;;;;6.00;5.40;;;23.70;84.30;;;;;;5046767;28;20052;-71
2021/07/20 11:44:33;;;;;;;6.43;4.95;;;23.70;88.00;;;;;;5062256;28;20086;-71
2021/07/20 11:47:14;;;;;;;5.40;4.90;;;23.70;87.80;;;;;;5050534;28;20139;-71
2021/07/20 11:50:01;;;;;;;6.47;5.43;;;23.70;88.30;;;;;;5046322;28;21365;-71
2021/07/20 11:52:47;;;;;;;7.53;5.50;;;23.50;77.20;;;;;;5050658;28;20041;-71
2021/07/20 11:55:28;;;;;;;6.22;4.90;;;23.50;83.80;;;;;;5052075;28;20089;-71
2021/07/20 11:58:18;;;;;;;7.38;4.95;;;23.50;85.50;;;;;;5052182;28;20056;-71
2021/07/20 12:01:03;;;;;;;5.90;5.38;;;23.70;89.00;;;;;;5048293;28;20051;-71
2021/07/20 12:03:40;;;;;;;5.55;4.80;;;23.80;87.00;;;;;;5052074;28;20041;-71
2021/07/20 12:06:17;;;;;;;5.25;4.72;;;23.80;82.60;;;;;;5046269;28;20052;-70
2021/07/20 12:09:04;;;;;;;6.78;4.75;;;23.80;77.10;;;;;;5046692;28;20052;-70
2021/07/20 12:11:35;;;;;;;5.38;4.78;;;23.60;79.20;;;;;;5052033;28;20047;-71
2021/07/20 12:14:05;;;;;;;5.93;4.70;;;23.40;80.00;;;;;;5051109;28;20029;-70
2021/07/20 12:16:39;;;;;;;6.22;5.40;;;23.30;83.20;;;;;;5044947;28;20052;-71
2021/07/20 12:19:06;;;;;;;9.65;5.90;;;23.30;85.30;;;;;;5033998;28;20033;-71
2021/07/20 12:21:34;;;;;;;5.55;4.93;;;23.10;87.70;;;;;;5038104;28;20146;-71
2021/07/20 12:24:08;;;;;;;6.47;5.78;;;23.00;86.50;;;;;;5036909;28;20041;-71
2021/07/20 12:26:34;;;;;;;6.45;4.88;;;23.20;86.50;;;;;;5035850;28;20957;-71
2021/07/20 12:29:00;;;;;;;8.60;4.85;;;23.20;86.30;;;;;;5033678;28;20123;-71
2021/07/20 12:31:33;;;;;;;5.53;4.75;;;23.40;83.20;;;;;;5036263;28;20120;-71
2021/07/20 12:34:00;;;;;;;8.02;5.05;;;23.50;83.80;;;;;;5037892;28;20453;-71
2021/07/20 12:36:26;;;;;;;6.72;5.20;;;23.40;82.70;;;;;;5038344;28;20047;-71
2021/07/20 12:39:13;;;;;;;7.57;5.30;;;23.20;79.70;;;;;;5033889;28;20047;-71
2021/07/20 12:41:55;;;;;;;6.35;5.53;;;23.10;83.50;;;;;;5036250;28;20040;-71
2021/07/20 12:44:31;;;;;;;5.88;4.93;;;23.10;85.90;;;;;;5037030;28;20120;-71
2021/07/20 12:47:08;;;;;;;5.20;4.75;;;23.10;88.90;;;;;;5035463;28;20077;-70
2021/07/20 12:49:36;;;;;;;6.57;4.65;;;23.00;83.90;;;;;;5036312;28;20055;-71
2021/07/20 12:52:03;;;;;;;7.53;5.22;;;22.90;86.40;;;;;;5038283;28;20041;-71
2021/07/20 12:54:37;;;;;;;5.30;4.80;;;23.00;90.10;;;;;;5039086;28;20048;-71
2021/07/20 12:57:05;;;;;;;9.38;6.85;;;23.00;88.80;;;;;;5036222;28;20162;-71
2021/07/20 12:59:40;;;;;;;6.55;5.15;;;23.00;88.20;;;;;;5038526;28;20068;-71